sensor_id;sensor_type;location;lat;lon;timestamp;pressure;altitude;pressure_sealevel;temperature;humidity
45323;BME280;31382;50.200;8.674;2023-11-19T00:00:16;100129.47;;;9.58;83.04
45323;BME280;31382;50.200;8.674;2023-11-19T00:05:17;100114.69;;;9.62;82.89
45323;BME280;31382;50.200;8.674;2023-11-19T00:10:19;100100.72;;;9.67;82.71
45323;BME280;31382;50.200;8.674;2023-11-19T00:15:22;100104.72;;;9.71;82.61
45323;BME280;31382;50.200;8.674;2023-11-19T00:20:25;100102.19;;;9.78;82.83
45323;BME280;31382;50.200;8.674;2023-11-19T00:25:26;100114.59;;;9.79;82.69
45323;BME280;31382;50.200;8.674;2023-11-19T00:30:28;100124.59;;;9.85;82.62
45323;BME280;31382;50.200;8.674;2023-11-19T00:35:29;100116.50;;;9.93;82.50
45323;BME280;31382;50.200;8.674;2023-11-19T00:40:33;100099.56;;;9.92;82.63
45323;BME280;31382;50.200;8.674;2023-11-19T00:45:34;100076.06;;;9.95;82.48
45323;BME280;31382;50.200;8.674;2023-11-19T00:50:35;100092.66;;;9.98;82.30
45323;BME280;31382;50.200;8.674;2023-11-19T00:55:39;100082.97;;;9.89;82.50
45323;BME280;31382;50.200;8.674;2023-11-19T01:00:43;100072.06;;;9.90;82.60
45323;BME280;31382;50.200;8.674;2023-11-19T01:05:46;100056.97;;;9.89;82.83
45323;BME280;31382;50.200;8.674;2023-11-19T01:10:48;100050.75;;;9.89;82.86
45323;BME280;31382;50.200;8.674;2023-11-19T01:15:49;100054.09;;;9.91;83.05
45323;BME280;31382;50.200;8.674;2023-11-19T01:20:51;100046.03;;;9.91;82.78
45323;BME280;31382;50.200;8.674;2023-11-19T01:25:52;100034.78;;;9.96;82.80
45323;BME280;31382;50.200;8.674;2023-11-19T01:30:54;100035.53;;;10.04;82.69
45323;BME280;31382;50.200;8.674;2023-11-19T01:35:55;100062.56;;;10.03;82.95
45323;BME280;31382;50.200;8.674;2023-11-19T01:41:00;100046.09;;;10.06;82.83
45323;BME280;31382;50.200;8.674;2023-11-19T01:46:04;100037.50;;;10.10;82.90
45323;BME280;31382;50.200;8.674;2023-11-19T01:51:07;100050.94;;;10.10;82.68
45323;BME280;31382;50.200;8.674;2023-11-19T01:56:10;100022.22;;;10.11;82.87
45323;BME280;31382;50.200;8.674;2023-11-19T02:01:13;100025.59;;;10.13;82.43
45323;BME280;31382;50.200;8.674;2023-11-19T02:06:15;100020.88;;;10.15;82.56
45323;BME280;31382;50.200;8.674;2023-11-19T02:11:16;100016.25;;;10.24;82.61
45323;BME280;31382;50.200;8.674;2023-11-19T02:16:18;100008.34;;;10.22;82.50
45323;BME280;31382;50.200;8.674;2023-11-19T02:21:19;99992.72;;;10.26;82.37
45323;BME280;31382;50.200;8.674;2023-11-19T02:26:30;100008.03;;;10.40;82.05
45323;BME280;31382;50.200;8.674;2023-11-19T02:31:34;99990.28;;;10.39;82.23
45323;BME280;31382;50.200;8.674;2023-11-19T02:36:36;99981.81;;;10.42;82.10
45323;BME280;31382;50.200;8.674;2023-11-19T02:41:38;99984.06;;;10.39;81.83
45323;BME280;31382;50.200;8.674;2023-11-19T02:46:40;99994.81;;;10.39;82.17
45323;BME280;31382;50.200;8.674;2023-11-19T02:51:43;99969.91;;;10.45;82.03
45323;BME280;31382;50.200;8.674;2023-11-19T02:56:45;99967.00;;;10.46;81.98
45323;BME280;31382;50.200;8.674;2023-11-19T03:01:49;99978.41;;;10.48;82.32
45323;BME280;31382;50.200;8.674;2023-11-19T03:06:51;99966.63;;;10.49;82.39
45323;BME280;31382;50.200;8.674;2023-11-19T03:11:55;99951.00;;;10.53;82.03
45323;BME280;31382;50.200;8.674;2023-11-19T03:16:56;99949.31;;;10.52;82.04
45323;BME280;31382;50.200;8.674;2023-11-19T03:21:58;99952.19;;;10.50;82.12
45323;BME280;31382;50.200;8.674;2023-11-19T03:27:01;99945.63;;;10.53;82.58
45323;BME280;31382;50.200;8.674;2023-11-19T03:32:02;99950.59;;;10.56;82.68
45323;BME280;31382;50.200;8.674;2023-11-19T03:37:04;99962.47;;;10.62;82.17
45323;BME280;31382;50.200;8.674;2023-11-19T03:42:05;99957.56;;;10.65;82.13
45323;BME280;31382;50.200;8.674;2023-11-19T03:47:06;99951.19;;;10.66;82.62
45323;BME280;31382;50.200;8.674;2023-11-19T03:52:08;99947.63;;;10.66;82.50
45323;BME280;31382;50.200;8.674;2023-11-19T03:57:21;99955.69;;;10.66;82.62
45323;BME280;31382;50.200;8.674;2023-11-19T04:02:22;99942.72;;;10.69;82.42
45323;BME280;31382;50.200;8.674;2023-11-19T04:07:25;99910.09;;;10.73;82.48
45323;BME280;31382;50.200;8.674;2023-11-19T04:12:26;99914.91;;;10.77;82.31
45323;BME280;31382;50.200;8.674;2023-11-19T04:17:28;99923.44;;;10.81;82.28
45323;BME280;31382;50.200;8.674;2023-11-19T04:22:29;99937.53;;;10.83;82.17
45323;BME280;31382;50.200;8.674;2023-11-19T04:27:31;99934.00;;;10.82;82.25
45323;BME280;31382;50.200;8.674;2023-11-19T04:32:32;99921.47;;;10.89;82.69
45323;BME280;31382;50.200;8.674;2023-11-19T04:37:34;99918.47;;;10.99;82.66
45323;BME280;31382;50.200;8.674;2023-11-19T04:42:36;99910.69;;;11.04;82.35
45323;BME280;31382;50.200;8.674;2023-11-19T04:47:37;99910.22;;;11.01;82.25
45323;BME280;31382;50.200;8.674;2023-11-19T04:52:39;99913.38;;;11.04;82.39
45323;BME280;31382;50.200;8.674;2023-11-19T04:57:46;99913.25;;;11.13;82.04
45323;BME280;31382;50.200;8.674;2023-11-19T05:02:48;99911.00;;;11.16;82.05
45323;BME280;31382;50.200;8.674;2023-11-19T05:07:50;99926.38;;;11.22;82.47
45323;BME280;31382;50.200;8.674;2023-11-19T05:12:51;99929.13;;;11.29;82.20
45323;BME280;31382;50.200;8.674;2023-11-19T05:17:53;99920.44;;;11.27;81.95
45323;BME280;31382;50.200;8.674;2023-11-19T05:22:54;99918.25;;;11.37;82.12
45323;BME280;31382;50.200;8.674;2023-11-19T05:27:56;99907.94;;;11.41;81.61
45323;BME280;31382;50.200;8.674;2023-11-19T05:32:57;99915.00;;;11.42;82.16
45323;BME280;31382;50.200;8.674;2023-11-19T05:37:59;99909.06;;;11.53;81.39
45323;BME280;31382;50.200;8.674;2023-11-19T05:43:00;99909.34;;;11.58;81.70
45323;BME280;31382;50.200;8.674;2023-11-19T05:48:02;99910.63;;;11.62;81.44
45323;BME280;31382;50.200;8.674;2023-11-19T05:53:05;99887.47;;;11.68;81.58
45323;BME280;31382;50.200;8.674;2023-11-19T05:58:07;99888.94;;;11.70;81.49
45323;BME280;31382;50.200;8.674;2023-11-19T06:03:12;99899.25;;;11.67;81.84
45323;BME280;31382;50.200;8.674;2023-11-19T06:08:14;99911.91;;;11.66;81.50
45323;BME280;31382;50.200;8.674;2023-11-19T06:13:15;99920.78;;;11.67;82.17
45323;BME280;31382;50.200;8.674;2023-11-19T06:18:17;99923.38;;;11.75;81.97
45323;BME280;31382;50.200;8.674;2023-11-19T06:23:21;99930.03;;;11.79;81.69
45323;BME280;31382;50.200;8.674;2023-11-19T06:28:23;99942.34;;;11.67;82.33
45323;BME280;31382;50.200;8.674;2023-11-19T06:33:24;99930.94;;;11.65;82.22
45323;BME280;31382;50.200;8.674;2023-11-19T06:38:26;99926.91;;;11.76;82.14
45323;BME280;31382;50.200;8.674;2023-11-19T06:43:27;99922.59;;;11.81;81.60
45323;BME280;31382;50.200;8.674;2023-11-19T06:48:43;99928.69;;;11.90;81.29
45323;BME280;31382;50.200;8.674;2023-11-19T06:53:46;99933.94;;;11.98;81.13
45323;BME280;31382;50.200;8.674;2023-11-19T06:58:48;99946.19;;;12.01;81.57
45323;BME280;31382;50.200;8.674;2023-11-19T07:03:49;99943.59;;;12.14;81.12
45323;BME280;31382;50.200;8.674;2023-11-19T07:08:53;99940.31;;;12.19;80.94
45323;BME280;31382;50.200;8.674;2023-11-19T07:13:54;99930.00;;;12.22;80.81
45323;BME280;31382;50.200;8.674;2023-11-19T07:18:55;99932.28;;;12.25;80.82
45323;BME280;31382;50.200;8.674;2023-11-19T07:23:57;99931.81;;;12.22;81.15
45323;BME280;31382;50.200;8.674;2023-11-19T07:28:58;99925.63;;;12.28;81.14
45323;BME280;31382;50.200;8.674;2023-11-19T07:34:00;99937.69;;;12.32;80.91
45323;BME280;31382;50.200;8.674;2023-11-19T07:39:01;99921.56;;;12.39;80.86
45323;BME280;31382;50.200;8.674;2023-11-19T07:44:03;99933.81;;;12.41;80.96
45323;BME280;31382;50.200;8.674;2023-11-19T07:49:05;99921.16;;;12.42;80.90
45323;BME280;31382;50.200;8.674;2023-11-19T07:54:06;99927.00;;;12.45;80.90
45323;BME280;31382;50.200;8.674;2023-11-19T07:59:08;99950.81;;;12.42;81.44
45323;BME280;31382;50.200;8.674;2023-11-19T08:04:09;99968.41;;;12.38;81.53
45323;BME280;31382;50.200;8.674;2023-11-19T08:09:11;99961.41;;;12.43;81.56
45323;BME280;31382;50.200;8.674;2023-11-19T08:14:15;99952.97;;;12.53;81.46
45323;BME280;31382;50.200;8.674;2023-11-19T08:19:16;99949.28;;;12.61;81.63
45323;BME280;31382;50.200;8.674;2023-11-19T08:24:17;99937.25;;;12.63;81.75
45323;BME280;31382;50.200;8.674;2023-11-19T08:29:19;99942.06;;;12.68;81.49
45323;BME280;31382;50.200;8.674;2023-11-19T08:34:21;99946.88;;;12.79;81.59
45323;BME280;31382;50.200;8.674;2023-11-19T08:39:22;99952.25;;;12.79;81.48
45323;BME280;31382;50.200;8.674;2023-11-19T08:44:23;99972.81;;;12.80;81.88
45323;BME280;31382;50.200;8.674;2023-11-19T08:49:26;99964.31;;;12.83;81.65
45323;BME280;31382;50.200;8.674;2023-11-19T08:54:27;99962.41;;;12.77;81.54
45323;BME280;31382;50.200;8.674;2023-11-19T08:59:29;99947.50;;;12.81;82.02
45323;BME280;31382;50.200;8.674;2023-11-19T09:04:31;99947.19;;;12.98;81.77
45323;BME280;31382;50.200;8.674;2023-11-19T09:09:32;99949.88;;;13.04;81.55
45323;BME280;31382;50.200;8.674;2023-11-19T09:14:37;99945.06;;;12.93;81.64
45323;BME280;31382;50.200;8.674;2023-11-19T09:19:38;99945.09;;;13.00;81.70
45323;BME280;31382;50.200;8.674;2023-11-19T09:24:40;99941.78;;;12.98;82.02
45323;BME280;31382;50.200;8.674;2023-11-19T09:29:41;99945.75;;;13.08;81.94
45323;BME280;31382;50.200;8.674;2023-11-19T09:34:44;99946.63;;;13.22;82.05
45323;BME280;31382;50.200;8.674;2023-11-19T09:39:45;99943.16;;;13.35;82.09
45323;BME280;31382;50.200;8.674;2023-11-19T09:44:47;99945.88;;;13.48;82.26
45323;BME280;31382;50.200;8.674;2023-11-19T09:49:49;99934.66;;;13.58;82.15
45323;BME280;31382;50.200;8.674;2023-11-19T09:54:51;99934.06;;;13.69;82.31
45323;BME280;31382;50.200;8.674;2023-11-19T09:59:53;99938.66;;;13.82;81.95
45323;BME280;31382;50.200;8.674;2023-11-19T10:04:55;99931.38;;;13.96;81.09
45323;BME280;31382;50.200;8.674;2023-11-19T10:09:57;99941.75;;;14.13;79.83
45323;BME280;31382;50.200;8.674;2023-11-19T10:14:59;99951.72;;;14.32;78.30
45323;BME280;31382;50.200;8.674;2023-11-19T10:20:01;99943.16;;;14.48;76.85
45323;BME280;31382;50.200;8.674;2023-11-19T10:25:02;99941.47;;;14.61;74.49
45323;BME280;31382;50.200;8.674;2023-11-19T10:30:04;99940.78;;;14.85;73.94
45323;BME280;31382;50.200;8.674;2023-11-19T10:35:10;99943.00;;;15.02;73.68
45323;BME280;31382;50.200;8.674;2023-11-19T10:40:15;99930.22;;;15.16;73.32
45323;BME280;31382;50.200;8.674;2023-11-19T10:45:23;99934.53;;;15.30;73.33
45323;BME280;31382;50.200;8.674;2023-11-19T10:50:26;99936.75;;;15.40;72.72
45323;BME280;31382;50.200;8.674;2023-11-19T10:55:29;99931.44;;;15.58;71.90
45323;BME280;31382;50.200;8.674;2023-11-19T11:00:39;99928.25;;;15.68;66.93
45323;BME280;31382;50.200;8.674;2023-11-19T11:05:48;99934.69;;;15.74;63.33
45323;BME280;31382;50.200;8.674;2023-11-19T11:10:54;99937.56;;;15.79;61.35
45323;BME280;31382;50.200;8.674;2023-11-19T11:15:58;99927.22;;;15.94;61.66
45323;BME280;31382;50.200;8.674;2023-11-19T11:21:04;99915.09;;;15.97;60.04
45323;BME280;31382;50.200;8.674;2023-11-19T11:26:47;99902.03;;;16.12;62.08
45323;BME280;31382;50.200;8.674;2023-11-19T11:32:04;99892.22;;;16.11;59.71
45323;BME280;31382;50.200;8.674;2023-11-19T11:37:18;99909.41;;;16.05;56.67
45323;BME280;31382;50.200;8.674;2023-11-19T11:47:22;99898.13;;;16.08;55.65
45323;BME280;31382;50.200;8.674;2023-11-19T11:52:24;99912.50;;;16.09;54.75
45323;BME280;31382;50.200;8.674;2023-11-19T11:57:36;99894.94;;;16.11;54.99
45323;BME280;31382;50.200;8.674;2023-11-19T12:02:38;99907.47;;;16.31;56.79
45323;BME280;31382;50.200;8.674;2023-11-19T12:07:40;99912.47;;;16.34;55.76
45323;BME280;31382;50.200;8.674;2023-11-19T12:12:41;99891.16;;;16.37;56.45
45323;BME280;31382;50.200;8.674;2023-11-19T12:17:47;99913.59;;;16.44;56.31
45323;BME280;31382;50.200;8.674;2023-11-19T12:22:53;99900.78;;;16.52;56.16
45323;BME280;31382;50.200;8.674;2023-11-19T12:27:55;99899.50;;;16.54;55.68
45323;BME280;31382;50.200;8.674;2023-11-19T12:32:57;99894.22;;;16.59;55.26
45323;BME280;31382;50.200;8.674;2023-11-19T12:37:59;99891.38;;;16.73;55.73
45323;BME280;31382;50.200;8.674;2023-11-19T12:43:01;99888.78;;;16.78;56.13
45323;BME280;31382;50.200;8.674;2023-11-19T12:48:07;99874.25;;;16.91;56.51
45323;BME280;31382;50.200;8.674;2023-11-19T12:53:09;99861.88;;;16.95;56.96
45323;BME280;31382;50.200;8.674;2023-11-19T12:58:10;99868.94;;;17.26;57.08
45323;BME280;31382;50.200;8.674;2023-11-19T13:03:12;99849.88;;;17.56;57.04
45323;BME280;31382;50.200;8.674;2023-11-19T13:08:13;99859.06;;;17.55;56.31
45323;BME280;31382;50.200;8.674;2023-11-19T13:13:15;99851.50;;;17.57;55.51
45323;BME280;31382;50.200;8.674;2023-11-19T13:18:17;99848.56;;;17.71;55.62
45323;BME280;31382;50.200;8.674;2023-11-19T13:23:18;99851.09;;;17.84;55.53
45323;BME280;31382;50.200;8.674;2023-11-19T13:28:21;99851.53;;;17.69;53.31
45323;BME280;31382;50.200;8.674;2023-11-19T13:33:23;99851.28;;;17.71;53.96
45323;BME280;31382;50.200;8.674;2023-11-19T13:38:25;99848.56;;;17.71;53.18
45323;BME280;31382;50.200;8.674;2023-11-19T13:43:27;99826.81;;;17.82;53.67
45323;BME280;31382;50.200;8.674;2023-11-19T13:48:29;99833.84;;;17.90;53.88
45323;BME280;31382;50.200;8.674;2023-11-19T13:53:31;99832.25;;;17.71;53.91
45323;BME280;31382;50.200;8.674;2023-11-19T13:58:32;99828.50;;;17.60;53.85
45323;BME280;31382;50.200;8.674;2023-11-19T14:03:33;99828.09;;;17.44;54.37
45323;BME280;31382;50.200;8.674;2023-11-19T14:08:36;99828.44;;;17.36;54.36
45323;BME280;31382;50.200;8.674;2023-11-19T14:13:37;99830.41;;;17.17;54.36
45323;BME280;31382;50.200;8.674;2023-11-19T14:18:40;99824.91;;;16.94;53.25
45323;BME280;31382;50.200;8.674;2023-11-19T14:23:43;99823.13;;;16.88;53.76
45323;BME280;31382;50.200;8.674;2023-11-19T14:28:44;99815.25;;;16.79;54.11
45323;BME280;31382;50.200;8.674;2023-11-19T14:33:49;99809.09;;;16.72;54.38
45323;BME280;31382;50.200;8.674;2023-11-19T14:38:50;99802.34;;;16.63;54.71
45323;BME280;31382;50.200;8.674;2023-11-19T14:43:52;99797.69;;;16.52;54.91
45323;BME280;31382;50.200;8.674;2023-11-19T14:48:53;99807.50;;;16.34;54.61
45323;BME280;31382;50.200;8.674;2023-11-19T14:53:55;99808.84;;;16.25;54.29
45323;BME280;31382;50.200;8.674;2023-11-19T14:58:56;99812.72;;;16.17;54.30
45323;BME280;31382;50.200;8.674;2023-11-19T15:03:58;99813.50;;;15.99;54.01
45323;BME280;31382;50.200;8.674;2023-11-19T15:09:05;99833.25;;;15.88;54.02
45323;BME280;31382;50.200;8.674;2023-11-19T15:14:08;99848.81;;;15.74;53.23
45323;BME280;31382;50.200;8.674;2023-11-19T15:19:10;99850.28;;;15.70;53.39
45323;BME280;31382;50.200;8.674;2023-11-19T15:24:13;99860.94;;;15.65;53.68
45323;BME280;31382;50.200;8.674;2023-11-19T15:29:15;99857.41;;;15.64;54.19
45323;BME280;31382;50.200;8.674;2023-11-19T15:34:16;99872.94;;;15.51;54.56
45323;BME280;31382;50.200;8.674;2023-11-19T15:39:19;99871.34;;;15.36;54.99
45323;BME280;31382;50.200;8.674;2023-11-19T15:44:20;99877.66;;;15.30;55.11
45323;BME280;31382;50.200;8.674;2023-11-19T15:49:22;99882.69;;;15.26;55.17
45323;BME280;31382;50.200;8.674;2023-11-19T15:54:24;99899.78;;;15.20;55.52
45323;BME280;31382;50.200;8.674;2023-11-19T15:59:25;99895.22;;;15.21;55.43
45323;BME280;31382;50.200;8.674;2023-11-19T16:04:26;99898.94;;;15.26;55.56
45323;BME280;31382;50.200;8.674;2023-11-19T16:09:28;99906.47;;;15.24;55.89
45323;BME280;31382;50.200;8.674;2023-11-19T16:14:30;99906.28;;;15.19;56.01
45323;BME280;31382;50.200;8.674;2023-11-19T16:19:31;99907.91;;;15.20;55.93
45323;BME280;31382;50.200;8.674;2023-11-19T16:24:36;99902.94;;;15.17;56.60
45323;BME280;31382;50.200;8.674;2023-11-19T16:29:38;99903.59;;;15.13;56.62
45323;BME280;31382;50.200;8.674;2023-11-19T16:34:39;99900.31;;;15.04;56.82
45323;BME280;31382;50.200;8.674;2023-11-19T16:39:43;99914.09;;;14.96;56.98
45323;BME280;31382;50.200;8.674;2023-11-19T16:44:45;99905.56;;;14.92;57.20
45323;BME280;31382;50.200;8.674;2023-11-19T16:49:46;99913.28;;;14.88;57.19
45323;BME280;31382;50.200;8.674;2023-11-19T16:54:48;99910.41;;;14.83;57.26
45323;BME280;31382;50.200;8.674;2023-11-19T16:59:49;99906.47;;;14.79;57.41
45323;BME280;31382;50.200;8.674;2023-11-19T17:04:57;99915.41;;;14.80;57.54
45323;BME280;31382;50.200;8.674;2023-11-19T17:09:59;99907.72;;;14.77;57.43
45323;BME280;31382;50.200;8.674;2023-11-19T17:15:00;99916.06;;;14.75;57.46
45323;BME280;31382;50.200;8.674;2023-11-19T17:20:06;99915.69;;;14.58;57.63
45323;BME280;31382;50.200;8.674;2023-11-19T17:25:08;99913.19;;;14.50;57.60
45323;BME280;31382;50.200;8.674;2023-11-19T17:30:15;99913.63;;;14.40;57.51
45323;BME280;31382;50.200;8.674;2023-11-19T17:35:17;99920.50;;;14.36;57.38
45323;BME280;31382;50.200;8.674;2023-11-19T17:40:19;99916.38;;;14.27;57.19
45323;BME280;31382;50.200;8.674;2023-11-19T17:45:22;99911.81;;;14.21;57.25
45323;BME280;31382;50.200;8.674;2023-11-19T17:50:23;99906.81;;;14.18;57.54
45323;BME280;31382;50.200;8.674;2023-11-19T17:55:27;99913.50;;;14.08;57.72
45323;BME280;31382;50.200;8.674;2023-11-19T18:00:28;99924.09;;;14.03;57.83
45323;BME280;31382;50.200;8.674;2023-11-19T18:05:29;99919.31;;;13.99;57.85
45323;BME280;31382;50.200;8.674;2023-11-19T18:10:31;99911.84;;;13.94;57.78
45323;BME280;31382;50.200;8.674;2023-11-19T18:15:32;99905.16;;;13.90;58.00
45323;BME280;31382;50.200;8.674;2023-11-19T18:20:38;99914.34;;;13.82;58.07
45323;BME280;31382;50.200;8.674;2023-11-19T18:25:39;99932.22;;;13.77;57.98
45323;BME280;31382;50.200;8.674;2023-11-19T18:30:41;99928.03;;;13.74;58.07
45323;BME280;31382;50.200;8.674;2023-11-19T18:35:42;99941.94;;;13.64;58.45
45323;BME280;31382;50.200;8.674;2023-11-19T18:40:44;99934.66;;;13.58;58.39
45323;BME280;31382;50.200;8.674;2023-11-19T18:45:46;99937.38;;;13.52;58.75
45323;BME280;31382;50.200;8.674;2023-11-19T18:50:48;99939.44;;;13.43;58.92
45323;BME280;31382;50.200;8.674;2023-11-19T18:55:52;99937.97;;;13.34;59.04
45323;BME280;31382;50.200;8.674;2023-11-19T19:00:54;99937.34;;;13.32;59.19
45323;BME280;31382;50.200;8.674;2023-11-19T19:05:55;99930.69;;;13.34;58.93
45323;BME280;31382;50.200;8.674;2023-11-19T19:10:57;99939.22;;;13.38;59.07
45323;BME280;31382;50.200;8.674;2023-11-19T19:15:58;99946.31;;;13.45;59.45
45323;BME280;31382;50.200;8.674;2023-11-19T19:21:00;99954.41;;;13.52;59.07
45323;BME280;31382;50.200;8.674;2023-11-19T19:26:02;99943.63;;;13.59;58.88
45323;BME280;31382;50.200;8.674;2023-11-19T19:31:05;99947.16;;;13.66;59.13
45323;BME280;31382;50.200;8.674;2023-11-19T19:36:07;99945.06;;;13.68;59.31
45323;BME280;31382;50.200;8.674;2023-11-19T19:41:10;99945.94;;;13.68;59.42
45323;BME280;31382;50.200;8.674;2023-11-19T19:46:12;99951.09;;;13.70;59.34
45323;BME280;31382;50.200;8.674;2023-11-19T19:51:14;99952.34;;;13.74;59.33
45323;BME280;31382;50.200;8.674;2023-11-19T19:56:15;99940.94;;;13.79;59.17
45323;BME280;31382;50.200;8.674;2023-11-19T20:01:17;99946.53;;;13.77;59.00
45323;BME280;31382;50.200;8.674;2023-11-19T20:06:19;99937.38;;;13.78;58.99
45323;BME280;31382;50.200;8.674;2023-11-19T20:11:22;99936.78;;;13.83;58.62
45323;BME280;31382;50.200;8.674;2023-11-19T20:16:24;99925.16;;;13.82;58.81
45323;BME280;31382;50.200;8.674;2023-11-19T20:21:25;99936.56;;;13.78;59.16
45323;BME280;31382;50.200;8.674;2023-11-19T20:26:30;99945.91;;;13.82;59.06
45323;BME280;31382;50.200;8.674;2023-11-19T20:31:31;99940.50;;;13.82;59.28
45323;BME280;31382;50.200;8.674;2023-11-19T20:36:33;99931.56;;;13.88;59.01
45323;BME280;31382;50.200;8.674;2023-11-19T20:41:34;99929.94;;;13.87;59.34
45323;BME280;31382;50.200;8.674;2023-11-19T20:46:35;99932.81;;;13.85;59.56
45323;BME280;31382;50.200;8.674;2023-11-19T20:51:37;99928.25;;;13.86;59.77
45323;BME280;31382;50.200;8.674;2023-11-19T20:56:41;99938.66;;;13.89;59.71
45323;BME280;31382;50.200;8.674;2023-11-19T21:01:42;99936.78;;;13.89;59.84
45323;BME280;31382;50.200;8.674;2023-11-19T21:06:44;99930.97;;;13.93;59.92
45323;BME280;31382;50.200;8.674;2023-11-19T21:11:48;99929.31;;;13.98;59.82
45323;BME280;31382;50.200;8.674;2023-11-19T21:16:50;99927.84;;;13.96;60.02
45323;BME280;31382;50.200;8.674;2023-11-19T21:21:52;99923.06;;;13.98;60.15
45323;BME280;31382;50.200;8.674;2023-11-19T21:26:54;99928.88;;;14.01;60.17
45323;BME280;31382;50.200;8.674;2023-11-19T21:31:55;99926.16;;;14.01;60.23
45323;BME280;31382;50.200;8.674;2023-11-19T21:36:57;99931.38;;;14.03;60.38
45323;BME280;31382;50.200;8.674;2023-11-19T21:41:59;99924.28;;;14.02;60.41
45323;BME280;31382;50.200;8.674;2023-11-19T21:47:00;99936.78;;;14.03;60.32
45323;BME280;31382;50.200;8.674;2023-11-19T21:52:02;99934.06;;;14.09;60.24
45323;BME280;31382;50.200;8.674;2023-11-19T21:57:04;99923.47;;;14.08;60.42
45323;BME280;31382;50.200;8.674;2023-11-19T22:02:06;99930.75;;;14.14;60.55
45323;BME280;31382;50.200;8.674;2023-11-19T22:07:07;99925.09;;;14.16;60.52
45323;BME280;31382;50.200;8.674;2023-11-19T22:12:10;99925.53;;;14.19;60.50
45323;BME280;31382;50.200;8.674;2023-11-19T22:17:11;99931.13;;;14.18;60.55
45323;BME280;31382;50.200;8.674;2023-11-19T22:22:13;99933.44;;;14.21;60.53
45323;BME280;31382;50.200;8.674;2023-11-19T22:27:15;99926.16;;;14.15;60.92
45323;BME280;31382;50.200;8.674;2023-11-19T22:32:16;99923.44;;;14.21;60.57
45323;BME280;31382;50.200;8.674;2023-11-19T22:37:20;99917.84;;;14.16;60.97
45323;BME280;31382;50.200;8.674;2023-11-19T22:42:22;99911.19;;;14.19;60.84
45323;BME280;31382;50.200;8.674;2023-11-19T22:47:23;99902.06;;;14.20;60.97
45323;BME280;31382;50.200;8.674;2023-11-19T22:52:25;99902.06;;;14.20;60.78
45323;BME280;31382;50.200;8.674;2023-11-19T22:57:26;99907.63;;;14.25;60.76
45323;BME280;31382;50.200;8.674;2023-11-19T23:02:27;99903.50;;;14.22;60.96
45323;BME280;31382;50.200;8.674;2023-11-19T23:07:31;99906.59;;;14.26;60.85
45323;BME280;31382;50.200;8.674;2023-11-19T23:12:32;99908.25;;;14.27;61.05
45323;BME280;31382;50.200;8.674;2023-11-19T23:17:34;99914.09;;;14.24;60.92
45323;BME280;31382;50.200;8.674;2023-11-19T23:22:35;99916.81;;;14.24;60.97
45323;BME280;31382;50.200;8.674;2023-11-19T23:27:38;99923.44;;;14.28;60.99
45323;BME280;31382;50.200;8.674;2023-11-19T23:32:39;99927.78;;;14.29;60.96
45323;BME280;31382;50.200;8.674;2023-11-19T23:37:41;99926.75;;;14.37;60.77
45323;BME280;31382;50.200;8.674;2023-11-19T23:42:42;99920.06;;;14.39;60.84
45323;BME280;31382;50.200;8.674;2023-11-19T23:47:45;99922.41;;;14.36;60.76
45323;BME280;31382;50.200;8.674;2023-11-19T23:52:46;99926.56;;;14.32;61.11
45323;BME280;31382;50.200;8.674;2023-11-19T23:57:50;99925.31;;;14.34;60.94
